Time;durP1;ratioP1;P1;durP2;ratioP2;P2;SDS_P1;SDS_P2;PMS_P1;PMS_P2;Temp;Humidity;BMP_temperature;BMP_pressure;BME280_temperature;BME280_humidity;BME280_pressure;Samples;Min_cycle;Max_cycle;Signal;HPM_P1;HPM_P2
2021/07/28 00:01:30;;;;;;;14.03;6.50;;;21.60;83.30;;;;;;5073879;28;20371;-71
2021/07/28 00:03:57;;;;;;;16.23;6.20;;;21.50;83.60;;;;;;5073669;28;20242;-71
2021/07/28 00:06:28;;;;;;;9.10;7.07;;;21.40;83.90;;;;;;5069928;28;20214;-72
2021/07/28 00:08:55;;;;;;;8.03;6.13;;;21.40;84.20;;;;;;5073624;28;20647;-71
2021/07/28 00:11:22;;;;;;;11.33;6.67;;;21.40;84.40;;;;;;5073386;28;20662;-71
2021/07/28 00:13:50;;;;;;;9.93;6.50;;;21.50;84.50;;;;;;5073682;28;20275;-71
2021/07/28 00:16:17;;;;;;;8.77;6.60;;;21.50;84.50;;;;;;5073578;28;20213;-71
2021/07/28 00:24:15;;;;;;;9.57;6.50;;;21.50;84.50;;;;;;5069955;28;20263;-71
2021/07/28 00:26:42;;;;;;;11.83;6.40;;;21.50;84.60;;;;;;5073419;28;20271;-71
2021/07/28 00:29:09;;;;;;;8.63;7.03;;;21.50;84.60;;;;;;5073303;28;20210;-71
2021/07/28 00:31:35;;;;;;;14.10;7.63;;;21.50;84.60;;;;;;5073165;28;20244;-71
2021/07/28 00:34:02;;;;;;;12.53;8.47;;;21.50;84.60;;;;;;5073030;28;20546;-71
2021/07/28 00:36:29;;;;;;;16.97;10.87;;;21.50;84.80;;;;;;5072953;28;20728;-71
2021/07/28 00:38:56;;;;;;;16.13;12.53;;;21.50;85.10;;;;;;5072726;28;20238;-71
2021/07/28 00:41:23;;;;;;;15.43;11.87;;;21.40;85.40;;;;;;5073069;28;20206;-71
2021/07/28 00:43:50;;;;;;;20.43;13.63;;;21.40;85.70;;;;;;5073060;28;20214;-71
2021/07/28 00:46:17;;;;;;;15.40;12.53;;;21.40;86.00;;;;;;5073039;28;20287;-73
2021/07/28 00:48:44;;;;;;;18.53;14.03;;;21.40;86.20;;;;;;5072708;28;20719;-72
2021/07/28 00:51:11;;;;;;;17.43;14.97;;;21.40;86.20;;;;;;5072796;28;20217;-71
2021/07/28 00:53:39;;;;;;;20.47;15.13;;;21.40;86.30;;;;;;5072751;28;20213;-72
2021/07/28 00:56:07;;;;;;;19.20;15.23;;;21.40;86.50;;;;;;5072471;28;20267;-72
2021/07/28 00:58:34;;;;;;;23.13;15.80;;;21.40;86.60;;;;;;5072587;28;20291;-72
2021/07/28 01:01:01;;;;;;;20.63;16.27;;;21.30;86.80;;;;;;5070676;28;20646;-72
2021/07/28 01:03:28;;;;;;;22.90;16.13;;;21.30;86.90;;;;;;5076690;28;20220;-72
2021/07/28 01:05:57;;;;;;;21.77;16.00;;;21.30;87.20;;;;;;5073554;28;20566;-72
2021/07/28 01:08:24;;;;;;;26.30;16.27;;;21.20;87.30;;;;;;5072352;28;20216;-72
2021/07/28 01:10:51;;;;;;;20.43;16.40;;;21.20;87.40;;;;;;5072080;28;20218;-72
2021/07/28 01:13:26;;;;;;;22.37;16.37;;;21.20;87.50;;;;;;5072449;28;20525;-71
2021/07/28 01:16:06;;;;;;;20.70;16.13;;;21.20;87.60;;;;;;5072585;28;20209;-71
2021/07/28 01:18:34;;;;;;;20.87;16.60;;;21.20;87.90;;;;;;5070571;28;20316;-71
2021/07/28 01:21:03;;;;;;;21.20;16.73;;;21.10;88.00;;;;;;5072198;28;20627;-71
2021/07/28 01:23:30;;;;;;;21.93;17.77;;;21.20;88.10;;;;;;5068516;28;20221;-71
2021/07/28 01:26:01;;;;;;;22.27;17.57;;;21.20;88.20;;;;;;5070691;28;20709;-71
2021/07/28 01:28:29;;;;;;;25.30;17.97;;;21.30;88.30;;;;;;5072429;28;20225;-71
2021/07/28 01:31:02;;;;;;;23.27;17.90;;;21.20;88.20;;;;;;5068597;28;20278;-72
2021/07/28 01:33:31;;;;;;;23.93;18.63;;;21.30;88.30;;;;;;5072182;28;20673;-72
2021/07/28 01:36:00;;;;;;;25.90;17.60;;;21.30;88.40;;;;;;5071401;28;20221;-72
2021/07/28 01:38:28;;;;;;;24.37;17.10;;;21.30;88.40;;;;;;5068467;28;20233;-72
2021/07/28 01:40:57;;;;;;;20.53;17.00;;;21.30;88.60;;;;;;5071926;28;20283;-72
2021/07/28 01:43:25;;;;;;;23.53;16.77;;;21.30;88.50;;;;;;5071871;28;20275;-72
2021/07/28 01:45:52;;;;;;;24.33;18.43;;;21.40;88.40;;;;;;5072153;28;20634;-72
2021/07/28 01:48:20;;;;;;;21.63;18.37;;;21.30;88.10;;;;;;5071984;28;20225;-72
2021/07/28 01:50:47;;;;;;;26.27;19.23;;;21.30;88.00;;;;;;5071945;28;20274;-72
2021/07/28 01:53:14;;;;;;;22.37;18.53;;;21.30;88.10;;;;;;5071893;28;20249;-72
2021/07/28 01:55:43;;;;;;;22.60;18.37;;;21.20;88.30;;;;;;5067947;28;20213;-72
2021/07/28 01:58:11;;;;;;;23.83;18.57;;;21.20;88.40;;;;;;5069826;28;20233;-72
2021/07/28 02:00:38;;;;;;;29.20;19.60;;;21.30;88.40;;;;;;5071631;28;20213;-72
2021/07/28 02:03:06;;;;;;;24.90;18.93;;;21.30;88.30;;;;;;5072007;28;20308;-69
2021/07/28 02:05:35;;;;;;;23.93;18.33;;;21.30;88.40;;;;;;5071491;28;20291;-69
2021/07/28 02:08:05;;;;;;;24.97;18.93;;;21.30;88.40;;;;;;5071631;28;20218;-69
2021/07/28 02:10:38;;;;;;;32.50;20.47;;;21.30;88.30;;;;;;5070073;28;20229;-69
2021/07/28 02:13:06;;;;;;;24.80;18.83;;;21.30;88.20;;;;;;5071834;28;20271;-69
2021/07/28 02:15:35;;;;;;;22.07;17.80;;;21.30;88.20;;;;;;5071607;28;20218;-69
2021/07/28 02:18:03;;;;;;;21.67;17.73;;;21.20;88.30;;;;;;5071535;28;20291;-71
2021/07/28 02:20:31;;;;;;;24.87;19.77;;;21.30;88.30;;;;;;5071785;28;20279;-71
2021/07/28 02:23:00;;;;;;;23.97;19.43;;;21.20;88.10;;;;;;5054352;28;20597;-71
2021/07/28 02:25:27;;;;;;;22.57;18.57;;;21.20;88.10;;;;;;5071433;28;20271;-71
2021/07/28 02:27:54;;;;;;;23.47;18.07;;;21.20;88.10;;;;;;5071489;28;20266;-71
2021/07/28 02:30:22;;;;;;;22.80;19.20;;;21.30;88.10;;;;;;5071797;28;20640;-71
2021/07/28 02:32:49;;;;;;;25.23;18.93;;;21.30;88.00;;;;;;5071471;28;20260;-71
2021/07/28 02:35:34;;;;;;;22.00;17.83;;;21.20;87.80;;;;;;5069201;28;20545;-71
2021/07/28 02:38:01;;;;;;;23.17;18.67;;;21.20;87.90;;;;;;5075228;28;20233;-71
2021/07/28 02:40:28;;;;;;;21.10;17.57;;;21.20;87.90;;;;;;5075680;28;20213;-71
2021/07/28 02:42:54;;;;;;;26.83;18.87;;;21.20;88.00;;;;;;5075262;28;20213;-71
2021/07/28 02:45:21;;;;;;;24.90;20.17;;;21.20;87.90;;;;;;5075309;28;20642;-71
2021/07/28 02:47:48;;;;;;;25.90;19.30;;;21.20;88.00;;;;;;5075129;28;20823;-71
2021/07/28 02:50:15;;;;;;;24.30;18.50;;;21.20;88.20;;;;;;5074972;28;20263;-71
2021/07/28 02:52:42;;;;;;;21.73;17.83;;;21.10;88.10;;;;;;5075158;28;20268;-71
2021/07/28 02:55:10;;;;;;;24.03;17.53;;;21.10;88.10;;;;;;5072600;28;20619;-70
2021/07/28 02:57:38;;;;;;;20.47;17.00;;;21.10;88.10;;;;;;5074872;28;20230;-70
2021/07/28 03:00:07;;;;;;;21.10;16.80;;;21.10;88.10;;;;;;5074539;28;20225;-70
2021/07/28 03:02:35;;;;;;;24.27;18.20;;;21.20;88.10;;;;;;5074938;28;20222;-70
2021/07/28 03:05:03;;;;;;;21.07;17.60;;;21.10;87.90;;;;;;5074719;28;20260;-70
2021/07/28 03:07:33;;;;;;;21.57;16.83;;;21.10;87.90;;;;;;5074796;28;20216;-70
2021/07/28 03:10:00;;;;;;;20.73;16.87;;;21.00;88.00;;;;;;5074185;28;20651;-70
2021/07/28 03:12:27;;;;;;;27.13;17.03;;;21.00;88.00;;;;;;5074786;28;20264;-70
2021/07/28 03:14:55;;;;;;;21.83;17.20;;;21.00;88.00;;;;;;5074782;28;20628;-70
2021/07/28 03:17:22;;;;;;;29.47;18.93;;;21.00;88.00;;;;;;5074456;28;20209;-70
2021/07/28 03:19:49;;;;;;;26.37;18.83;;;21.00;88.30;;;;;;5057279;28;20571;-70
2021/07/28 03:22:16;;;;;;;27.97;18.83;;;21.00;88.30;;;;;;5057083;28;20646;-70
2021/07/28 03:24:43;;;;;;;22.90;16.50;;;20.90;88.40;;;;;;5072958;28;20244;-70
2021/07/28 03:27:10;;;;;;;25.67;18.13;;;20.90;88.60;;;;;;5074368;28;20220;-70
2021/07/28 03:29:37;;;;;;;28.70;18.30;;;20.90;88.60;;;;;;5074175;28;20209;-70
2021/07/28 03:32:04;;;;;;;27.17;17.93;;;20.80;88.50;;;;;;5074667;28;20248;-70
2021/07/28 03:34:31;;;;;;;24.70;18.10;;;20.80;88.60;;;;;;5074266;28;20655;-70
2021/07/28 03:36:58;;;;;;;21.13;17.37;;;20.70;88.70;;;;;;5074368;28;20217;-70
2021/07/28 03:39:25;;;;;;;22.87;17.00;;;20.70;88.90;;;;;;5074002;28;20261;-70
2021/07/28 03:41:52;;;;;;;24.60;17.93;;;20.70;89.40;;;;;;5073946;28;20213;-70
2021/07/28 03:44:19;;;;;;;24.53;16.40;;;20.70;89.00;;;;;;5074094;28;20213;-70
2021/07/28 03:46:46;;;;;;;20.57;15.77;;;20.70;89.20;;;;;;5073595;28;20210;-70
2021/07/28 03:49:13;;;;;;;22.63;16.70;;;20.70;89.20;;;;;;5074258;28;20218;-70
2021/07/28 03:51:40;;;;;;;23.63;15.60;;;20.80;89.20;;;;;;5074099;28;20681;-70
2021/07/28 03:54:07;;;;;;;22.60;17.07;;;20.80;89.20;;;;;;5073991;28;20214;-70
2021/07/28 03:56:34;;;;;;;22.83;16.83;;;20.70;89.20;;;;;;5073934;28;20298;-70
2021/07/28 03:59:01;;;;;;;22.83;16.60;;;20.80;89.20;;;;;;5073797;28;20248;-70
2021/07/28 04:01:28;;;;;;;21.07;15.33;;;20.80;89.00;;;;;;5073658;28;20217;-70
2021/07/28 04:03:55;;;;;;;21.37;16.27;;;20.80;88.90;;;;;;5068888;28;20300;-70
2021/07/28 04:06:22;;;;;;;19.87;16.00;;;20.80;88.70;;;;;;5073677;28;20274;-70
2021/07/28 04:08:49;;;;;;;18.23;15.50;;;20.80;88.60;;;;;;5070209;28;20213;-70
2021/07/28 04:11:16;;;;;;;22.30;16.30;;;20.80;88.50;;;;;;5073703;28;20217;-70
2021/07/28 04:13:43;;;;;;;23.17;17.20;;;20.90;88.40;;;;;;5073649;28;20217;-70
2021/07/28 04:16:10;;;;;;;21.70;15.27;;;20.80;88.10;;;;;;5073389;28;20283;-70
2021/07/28 04:18:37;;;;;;;21.10;15.70;;;20.80;88.20;;;;;;5069724;28;20573;-70
2021/07/28 04:21:04;;;;;;;24.03;14.93;;;20.70;88.30;;;;;;5073085;28;20274;-70
2021/07/28 04:23:31;;;;;;;20.07;15.63;;;20.70;88.40;;;;;;5073464;28;20233;-70
2021/07/28 04:25:58;;;;;;;19.07;15.53;;;20.80;88.50;;;;;;5072985;28;20206;-70
2021/07/28 04:28:26;;;;;;;19.70;16.03;;;20.80;88.50;;;;;;5069778;28;20278;-70
2021/07/28 04:30:53;;;;;;;23.37;14.57;;;20.90;88.50;;;;;;5073457;28;20217;-71
2021/07/28 04:33:21;;;;;;;17.23;14.93;;;20.90;88.40;;;;;;5073165;28;20224;-70
2021/07/28 04:35:48;;;;;;;18.97;14.87;;;20.90;88.30;;;;;;5073117;28;20228;-70
2021/07/28 04:38:15;;;;;;;21.80;14.80;;;21.00;88.30;;;;;;5073352;28;20238;-70
2021/07/28 04:40:42;;;;;;;18.20;15.50;;;21.10;88.20;;;;;;5073052;28;20595;-70
2021/07/28 04:43:09;;;;;;;20.53;15.43;;;21.10;88.10;;;;;;5073215;28;20206;-70
2021/07/28 04:45:36;;;;;;;19.27;14.50;;;21.20;88.10;;;;;;5073223;28;20205;-70
2021/07/28 04:48:04;;;;;;;25.30;14.77;;;21.30;88.00;;;;;;5073133;28;20214;-70
2021/07/28 04:50:32;;;;;;;18.57;14.47;;;21.40;87.80;;;;;;5072647;28;20217;-70
2021/07/28 04:52:59;;;;;;;22.60;15.63;;;21.50;87.50;;;;;;5073326;28;20256;-70
2021/07/28 04:55:26;;;;;;;19.40;13.93;;;21.60;87.30;;;;;;5070518;28;20233;-70
2021/07/28 04:57:53;;;;;;;17.87;14.10;;;21.70;87.00;;;;;;5072791;28;20339;-70
2021/07/28 05:00:21;;;;;;;19.40;14.10;;;21.80;86.70;;;;;;5054678;28;20216;-70
2021/07/28 05:02:48;;;;;;;20.60;14.13;;;21.90;86.40;;;;;;5072631;28;20291;-70
2021/07/28 05:05:15;;;;;;;17.63;13.50;;;22.00;86.20;;;;;;5074415;28;20291;-70
2021/07/28 05:07:44;;;;;;;18.03;14.17;;;22.10;85.90;;;;;;5072330;28;20214;-70
2021/07/28 05:10:11;;;;;;;19.73;14.77;;;22.20;85.70;;;;;;5072786;28;20225;-70
2021/07/28 05:12:39;;;;;;;24.83;15.53;;;22.30;85.60;;;;;;5072694;28;20244;-70
2021/07/28 05:15:06;;;;;;;20.90;14.67;;;22.40;85.40;;;;;;5072394;28;20601;-70
2021/07/28 05:17:33;;;;;;;16.20;13.73;;;22.50;85.20;;;;;;5072606;28;20524;-70
2021/07/28 05:20:00;;;;;;;20.07;13.80;;;22.60;84.90;;;;;;5072234;28;20245;-70
2021/07/28 05:22:27;;;;;;;20.77;14.73;;;22.70;84.50;;;;;;5072389;28;20221;-70
2021/07/28 05:24:55;;;;;;;15.93;13.33;;;22.80;84.20;;;;;;5070818;28;20599;-70
2021/07/28 05:27:22;;;;;;;17.93;12.50;;;22.80;84.00;;;;;;5072414;28;20571;-70
2021/07/28 05:29:49;;;;;;;17.03;13.80;;;22.80;83.90;;;;;;5072438;28;20209;-70
2021/07/28 05:32:16;;;;;;;18.13;12.80;;;22.80;83.80;;;;;;5072309;28;20536;-70
2021/07/28 05:34:43;;;;;;;14.43;12.87;;;22.90;83.90;;;;;;5068171;28;20624;-71
2021/07/28 05:37:10;;;;;;;18.10;12.90;;;22.90;83.70;;;;;;5072403;28;20225;-71
2021/07/28 05:39:37;;;;;;;19.00;14.53;;;23.00;83.60;;;;;;5072062;28;20244;-71
2021/07/28 05:42:04;;;;;;;22.80;13.97;;;23.00;83.30;;;;;;5072099;28;20214;-70
2021/07/28 05:44:32;;;;;;;21.97;14.53;;;23.10;82.90;;;;;;5068444;28;20312;-70
2021/07/28 05:46:59;;;;;;;20.30;14.47;;;23.10;82.50;;;;;;5054941;28;20221;-70
2021/07/28 05:49:26;;;;;;;16.27;13.20;;;23.20;82.40;;;;;;5072250;28;20214;-70
2021/07/28 05:51:53;;;;;;;16.83;13.73;;;23.40;82.10;;;;;;5072233;28;20214;-70
2021/07/28 05:54:21;;;;;;;20.50;14.43;;;23.50;81.80;;;;;;5071930;28;20670;-71
2021/07/28 05:56:48;;;;;;;22.63;15.40;;;23.70;81.40;;;;;;5072290;28;20221;-71
2021/07/28 05:59:15;;;;;;;23.83;16.17;;;23.80;80.90;;;;;;5072358;28;20343;-71
2021/07/28 06:01:42;;;;;;;21.40;14.57;;;23.90;80.40;;;;;;5072026;28;20596;-71
2021/07/28 06:04:09;;;;;;;18.13;14.23;;;23.90;80.10;;;;;;5068401;28;20228;-71
2021/07/28 06:06:36;;;;;;;18.40;14.13;;;24.00;80.40;;;;;;5072043;28;20217;-71
2021/07/28 06:09:03;;;;;;;16.30;14.57;;;24.20;80.30;;;;;;5069639;28;20704;-71
2021/07/28 06:11:30;;;;;;;18.83;14.90;;;24.40;79.60;;;;;;5074885;28;20221;-71
2021/07/28 06:13:57;;;;;;;19.93;13.43;;;24.50;78.90;;;;;;5072108;28;20233;-71
2021/07/28 06:16:24;;;;;;;20.27;15.73;;;24.70;78.80;;;;;;5076325;28;20254;-71
2021/07/28 06:18:51;;;;;;;18.17;15.63;;;24.80;78.00;;;;;;5075685;28;20694;-71
2021/07/28 06:21:18;;;;;;;22.50;16.07;;;24.70;77.50;;;;;;5075985;28;20298;-71
2021/07/28 06:23:47;;;;;;;17.17;14.63;;;24.70;78.10;;;;;;5072210;28;20216;-71
2021/07/28 06:26:14;;;;;;;27.03;16.07;;;24.80;78.20;;;;;;5072537;28;20566;-71
2021/07/28 06:28:41;;;;;;;22.20;16.37;;;24.80;78.20;;;;;;5076025;28;20271;-71
2021/07/28 06:31:09;;;;;;;20.57;15.80;;;24.80;78.00;;;;;;5075803;28;20243;-71
2021/07/28 06:33:36;;;;;;;24.90;15.07;;;24.90;77.30;;;;;;5072639;28;20252;-71
2021/07/28 06:36:03;;;;;;;23.70;15.87;;;25.00;77.30;;;;;;5075700;28;20251;-71
2021/07/28 06:38:30;;;;;;;20.30;14.97;;;25.10;77.50;;;;;;5075439;28;20234;-71
2021/07/28 06:40:57;;;;;;;20.13;14.60;;;25.40;77.30;;;;;;5057698;28;20635;-71
2021/07/28 06:43:24;;;;;;;21.03;15.40;;;25.70;76.70;;;;;;5071852;28;20229;-72
2021/07/28 06:45:59;;;;;;;21.17;16.17;;;26.00;75.90;;;;;;5075186;28;20613;-71
2021/07/28 06:48:27;;;;;;;21.97;15.40;;;26.30;74.70;;;;;;5075211;28;20662;-71
2021/07/28 06:50:54;;;;;;;20.80;15.83;;;26.50;73.90;;;;;;5075282;28;20214;-71
2021/07/28 06:53:21;;;;;;;18.97;15.87;;;26.70;73.10;;;;;;5075593;28;20267;-71
2021/07/28 06:55:50;;;;;;;20.63;15.60;;;26.90;72.50;;;;;;5072597;28;20210;-71
2021/07/28 06:58:17;;;;;;;19.90;16.57;;;27.00;71.80;;;;;;5074914;28;20201;-71
2021/07/28 07:00:45;;;;;;;20.07;16.13;;;27.20;71.10;;;;;;5074853;28;20544;-71
2021/07/28 07:03:12;;;;;;;25.30;18.93;;;27.30;70.90;;;;;;5075020;28;20235;-71
2021/07/28 07:05:39;;;;;;;20.93;16.53;;;27.40;69.90;;;;;;5074843;28;20244;-71
2021/07/28 07:08:06;;;;;;;20.30;16.27;;;27.50;69.60;;;;;;5074814;28;20638;-71
2021/07/28 07:10:33;;;;;;;20.37;15.70;;;27.50;69.60;;;;;;5075042;28;20221;-71
2021/07/28 07:13:03;;;;;;;18.30;16.00;;;27.70;69.50;;;;;;5074812;28;20235;-71
2021/07/28 07:15:30;;;;;;;18.57;15.27;;;27.80;69.00;;;;;;5074862;28;20696;-72
2021/07/28 07:17:57;;;;;;;18.77;15.10;;;28.00;68.60;;;;;;5071108;28;20224;-72
2021/07/28 07:20:24;;;;;;;18.90;15.57;;;28.20;68.10;;;;;;5075047;28;20240;-72
2021/07/28 07:22:51;;;;;;;17.87;14.80;;;28.30;67.00;;;;;;5073895;28;20248;-72
2021/07/28 07:25:20;;;;;;;22.77;15.60;;;28.30;66.80;;;;;;5072833;28;20210;-72
2021/07/28 07:27:47;;;;;;;18.90;14.63;;;28.30;66.60;;;;;;5071310;28;20225;-72
2021/07/28 07:30:14;;;;;;;16.27;14.30;;;28.50;66.60;;;;;;5074419;28;20217;-72
2021/07/28 07:32:41;;;;;;;22.30;13.53;;;28.50;66.90;;;;;;5074399;28;20290;-72
2021/07/28 07:35:08;;;;;;;18.50;12.97;;;28.60;66.70;;;;;;5074476;28;20609;-72
2021/07/28 07:37:35;;;;;;;17.20;12.13;;;28.70;66.10;;;;;;5074405;28;20214;-72
2021/07/28 07:40:03;;;;;;;19.47;13.33;;;28.80;66.10;;;;;;5074383;28;20250;-72
2021/07/28 07:42:30;;;;;;;19.53;12.83;;;28.90;65.30;;;;;;5074287;28;20597;-72
2021/07/28 07:44:58;;;;;;;20.67;14.43;;;29.00;65.40;;;;;;5074041;28;20292;-72
2021/07/28 07:47:25;;;;;;;16.87;12.63;;;29.10;65.10;;;;;;5074149;28;20271;-72
2021/07/28 07:49:52;;;;;;;21.27;12.37;;;29.20;65.20;;;;;;5073933;28;20569;-72
2021/07/28 07:52:19;;;;;;;18.37;12.33;;;29.20;64.50;;;;;;5074144;28;20228;-72
